sensor_id;sensor_type;location;lat;lon;timestamp;P1;durP1;ratioP1;P2;durP2;ratioP2
61015;SDS011;46902;52.920;6.536;2024-03-08T00:02:22;30.52;;;19.50;;
61015;SDS011;46902;52.920;6.536;2024-03-08T00:04:48;33.13;;;19.77;;
61015;SDS011;46902;52.920;6.536;2024-03-08T00:07:14;31.58;;;19.05;;
61015;SDS011;46902;52.920;6.536;2024-03-08T00:09:40;33.10;;;20.48;;
61015;SDS011;46902;52.920;6.536;2024-03-08T00:12:05;29.98;;;20.02;;
61015;SDS011;46902;52.920;6.536;2024-03-08T00:14:31;33.15;;;20.40;;
61015;SDS011;46902;52.920;6.536;2024-03-08T00:16:58;27.45;;;18.45;;
61015;SDS011;46902;52.920;6.536;2024-03-08T00:19:23;30.80;;;19.67;;
61015;SDS011;46902;52.920;6.536;2024-03-08T00:21:49;31.55;;;20.77;;
61015;SDS011;46902;52.920;6.536;2024-03-08T00:24:15;30.13;;;20.15;;
61015;SDS011;46902;52.920;6.536;2024-03-08T00:26:40;30.95;;;20.83;;
61015;SDS011;46902;52.920;6.536;2024-03-08T00:29:07;30.40;;;20.05;;
61015;SDS011;46902;52.920;6.536;2024-03-08T00:31:32;32.03;;;20.63;;
61015;SDS011;46902;52.920;6.536;2024-03-08T00:33:58;34.22;;;21.80;;
61015;SDS011;46902;52.920;6.536;2024-03-08T00:36:24;31.73;;;21.30;;
61015;SDS011;46902;52.920;6.536;2024-03-08T00:38:50;32.38;;;20.45;;
61015;SDS011;46902;52.920;6.536;2024-03-08T00:41:15;31.30;;;20.35;;
61015;SDS011;46902;52.920;6.536;2024-03-08T00:43:41;32.78;;;21.08;;
61015;SDS011;46902;52.920;6.536;2024-03-08T00:46:07;30.50;;;20.52;;
61015;SDS011;46902;52.920;6.536;2024-03-08T00:48:32;36.00;;;21.17;;
61015;SDS011;46902;52.920;6.536;2024-03-08T00:50:58;32.70;;;21.02;;
61015;SDS011;46902;52.920;6.536;2024-03-08T00:53:24;29.23;;;20.48;;
61015;SDS011;46902;52.920;6.536;2024-03-08T00:55:49;32.35;;;21.52;;
61015;SDS011;46902;52.920;6.536;2024-03-08T00:58:15;33.00;;;21.10;;
61015;SDS011;46902;52.920;6.536;2024-03-08T01:00:41;33.92;;;20.65;;
61015;SDS011;46902;52.920;6.536;2024-03-08T01:03:06;34.67;;;21.23;;
61015;SDS011;46902;52.920;6.536;2024-03-08T01:05:32;32.30;;;20.75;;
61015;SDS011;46902;52.920;6.536;2024-03-08T01:07:58;33.20;;;21.38;;
61015;SDS011;46902;52.920;6.536;2024-03-08T01:10:24;34.22;;;22.10;;
61015;SDS011;46902;52.920;6.536;2024-03-08T01:12:50;32.70;;;21.25;;
61015;SDS011;46902;52.920;6.536;2024-03-08T01:15:15;29.27;;;20.80;;
61015;SDS011;46902;52.920;6.536;2024-03-08T01:17:41;32.53;;;21.30;;
61015;SDS011;46902;52.920;6.536;2024-03-08T01:20:08;33.08;;;21.58;;
61015;SDS011;46902;52.920;6.536;2024-03-08T01:22:37;34.63;;;20.55;;
61015;SDS011;46902;52.920;6.536;2024-03-08T01:25:03;34.50;;;20.58;;
61015;SDS011;46902;52.920;6.536;2024-03-08T01:27:30;30.92;;;21.27;;
61015;SDS011;46902;52.920;6.536;2024-03-08T01:29:56;33.78;;;21.23;;
61015;SDS011;46902;52.920;6.536;2024-03-08T01:32:22;35.80;;;21.50;;
61015;SDS011;46902;52.920;6.536;2024-03-08T01:34:48;34.13;;;21.92;;
61015;SDS011;46902;52.920;6.536;2024-03-08T01:37:14;32.03;;;21.23;;
61015;SDS011;46902;52.920;6.536;2024-03-08T01:39:39;34.70;;;21.05;;
61015;SDS011;46902;52.920;6.536;2024-03-08T01:42:05;30.95;;;20.23;;
61015;SDS011;46902;52.920;6.536;2024-03-08T01:44:31;30.85;;;21.52;;
61015;SDS011;46902;52.920;6.536;2024-03-08T01:46:56;33.97;;;22.05;;
61015;SDS011;46902;52.920;6.536;2024-03-08T01:49:22;32.70;;;22.25;;
61015;SDS011;46902;52.920;6.536;2024-03-08T01:51:50;35.15;;;21.85;;
61015;SDS011;46902;52.920;6.536;2024-03-08T01:54:16;35.60;;;22.30;;
61015;SDS011;46902;52.920;6.536;2024-03-08T01:56:43;34.20;;;21.70;;
61015;SDS011;46902;52.920;6.536;2024-03-08T01:59:09;32.42;;;20.85;;
61015;SDS011;46902;52.920;6.536;2024-03-08T02:01:35;33.88;;;21.77;;
61015;SDS011;46902;52.920;6.536;2024-03-08T02:04:00;37.55;;;21.55;;
61015;SDS011;46902;52.920;6.536;2024-03-08T02:06:26;34.63;;;21.55;;
61015;SDS011;46902;52.920;6.536;2024-03-08T02:08:52;34.15;;;21.80;;
61015;SDS011;46902;52.920;6.536;2024-03-08T02:11:18;34.30;;;21.88;;
61015;SDS011;46902;52.920;6.536;2024-03-08T02:13:45;31.55;;;21.10;;
61015;SDS011;46902;52.920;6.536;2024-03-08T02:16:11;34.38;;;21.40;;
61015;SDS011;46902;52.920;6.536;2024-03-08T02:18:37;33.95;;;21.48;;
61015;SDS011;46902;52.920;6.536;2024-03-08T02:21:04;34.67;;;21.90;;
61015;SDS011;46902;52.920;6.536;2024-03-08T02:23:31;32.17;;;21.63;;
61015;SDS011;46902;52.920;6.536;2024-03-08T02:25:57;33.85;;;21.05;;
61015;SDS011;46902;52.920;6.536;2024-03-08T02:28:23;33.25;;;22.58;;
61015;SDS011;46902;52.920;6.536;2024-03-08T02:30:54;34.30;;;22.05;;
61015;SDS011;46902;52.920;6.536;2024-03-08T02:33:21;35.38;;;22.70;;
61015;SDS011;46902;52.920;6.536;2024-03-08T02:35:47;35.05;;;21.38;;
61015;SDS011;46902;52.920;6.536;2024-03-08T02:38:23;44.03;;;21.08;;
61015;SDS011;46902;52.920;6.536;2024-03-08T02:40:50;32.72;;;21.77;;
61015;SDS011;46902;52.920;6.536;2024-03-08T02:43:18;34.35;;;21.73;;
61015;SDS011;46902;52.920;6.536;2024-03-08T02:45:44;32.40;;;21.08;;
61015;SDS011;46902;52.920;6.536;2024-03-08T02:48:11;32.55;;;21.58;;
61015;SDS011;46902;52.920;6.536;2024-03-08T02:50:37;34.40;;;21.83;;
61015;SDS011;46902;52.920;6.536;2024-03-08T02:53:05;35.53;;;22.08;;
61015;SDS011;46902;52.920;6.536;2024-03-08T02:55:31;30.25;;;21.45;;
61015;SDS011;46902;52.920;6.536;2024-03-08T02:57:58;36.28;;;22.23;;
61015;SDS011;46902;52.920;6.536;2024-03-08T03:00:24;33.95;;;21.88;;
61015;SDS011;46902;52.920;6.536;2024-03-08T03:02:50;31.30;;;21.33;;
61015;SDS011;46902;52.920;6.536;2024-03-08T03:05:22;33.78;;;20.70;;
61015;SDS011;46902;52.920;6.536;2024-03-08T03:07:48;35.92;;;21.98;;
61015;SDS011;46902;52.920;6.536;2024-03-08T03:10:14;34.40;;;21.77;;
61015;SDS011;46902;52.920;6.536;2024-03-08T03:12:42;32.03;;;22.27;;
61015;SDS011;46902;52.920;6.536;2024-03-08T03:15:08;33.17;;;21.58;;
61015;SDS011;46902;52.920;6.536;2024-03-08T03:17:36;32.83;;;20.70;;
61015;SDS011;46902;52.920;6.536;2024-03-08T03:20:02;37.90;;;22.30;;
61015;SDS011;46902;52.920;6.536;2024-03-08T03:22:34;32.40;;;21.33;;
61015;SDS011;46902;52.920;6.536;2024-03-08T03:25:02;33.53;;;21.65;;
61015;SDS011;46902;52.920;6.536;2024-03-08T03:27:29;33.88;;;21.40;;
61015;SDS011;46902;52.920;6.536;2024-03-08T03:29:55;35.03;;;22.20;;
61015;SDS011;46902;52.920;6.536;2024-03-08T03:32:22;33.00;;;21.35;;
61015;SDS011;46902;52.920;6.536;2024-03-08T03:34:48;33.15;;;21.67;;
61015;SDS011;46902;52.920;6.536;2024-03-08T03:37:18;31.27;;;21.65;;
61015;SDS011;46902;52.920;6.536;2024-03-08T03:39:44;32.10;;;20.58;;
61015;SDS011;46902;52.920;6.536;2024-03-08T03:42:18;37.15;;;22.60;;
61015;SDS011;46902;52.920;6.536;2024-03-08T03:44:48;31.33;;;21.35;;
61015;SDS011;46902;52.920;6.536;2024-03-08T03:47:14;34.17;;;21.33;;
61015;SDS011;46902;52.920;6.536;2024-03-08T03:49:40;33.08;;;21.70;;
61015;SDS011;46902;52.920;6.536;2024-03-08T03:52:07;32.47;;;21.27;;
61015;SDS011;46902;52.920;6.536;2024-03-08T03:54:32;31.60;;;21.02;;
61015;SDS011;46902;52.920;6.536;2024-03-08T03:56:58;32.28;;;21.63;;
61015;SDS011;46902;52.920;6.536;2024-03-08T03:59:25;32.83;;;21.58;;
61015;SDS011;46902;52.920;6.536;2024-03-08T04:01:52;33.15;;;22.13;;
61015;SDS011;46902;52.920;6.536;2024-03-08T04:04:20;33.85;;;21.55;;
61015;SDS011;46902;52.920;6.536;2024-03-08T04:06:46;36.35;;;22.65;;
61015;SDS011;46902;52.920;6.536;2024-03-08T04:09:12;36.17;;;22.75;;
61015;SDS011;46902;52.920;6.536;2024-03-08T04:11:38;34.08;;;21.52;;
61015;SDS011;46902;52.920;6.536;2024-03-08T04:14:04;32.83;;;21.77;;
61015;SDS011;46902;52.920;6.536;2024-03-08T04:16:30;31.33;;;21.30;;
61015;SDS011;46902;52.920;6.536;2024-03-08T04:18:56;40.63;;;22.85;;
61015;SDS011;46902;52.920;6.536;2024-03-08T04:21:22;36.03;;;21.75;;
61015;SDS011;46902;52.920;6.536;2024-03-08T04:23:48;31.08;;;20.52;;
61015;SDS011;46902;52.920;6.536;2024-03-08T04:26:14;32.15;;;21.13;;
61015;SDS011;46902;52.920;6.536;2024-03-08T04:28:39;32.78;;;21.65;;
61015;SDS011;46902;52.920;6.536;2024-03-08T04:31:05;29.95;;;20.45;;
61015;SDS011;46902;52.920;6.536;2024-03-08T04:33:31;33.60;;;21.50;;
61015;SDS011;46902;52.920;6.536;2024-03-08T04:35:57;31.13;;;21.33;;
61015;SDS011;46902;52.920;6.536;2024-03-08T04:38:23;34.78;;;21.98;;
61015;SDS011;46902;52.920;6.536;2024-03-08T04:40:49;31.27;;;20.88;;
61015;SDS011;46902;52.920;6.536;2024-03-08T04:43:15;32.92;;;21.75;;
61015;SDS011;46902;52.920;6.536;2024-03-08T04:45:43;35.15;;;20.80;;
61015;SDS011;46902;52.920;6.536;2024-03-08T04:48:09;33.83;;;21.17;;
61015;SDS011;46902;52.920;6.536;2024-03-08T04:50:35;34.70;;;22.30;;
61015;SDS011;46902;52.920;6.536;2024-03-08T04:53:00;33.10;;;20.45;;
61015;SDS011;46902;52.920;6.536;2024-03-08T04:55:26;34.13;;;20.83;;
61015;SDS011;46902;52.920;6.536;2024-03-08T04:57:51;31.58;;;20.90;;
61015;SDS011;46902;52.920;6.536;2024-03-08T05:00:18;29.17;;;19.98;;
61015;SDS011;46902;52.920;6.536;2024-03-08T05:02:44;32.22;;;21.13;;
61015;SDS011;46902;52.920;6.536;2024-03-08T05:05:10;33.20;;;21.10;;
61015;SDS011;46902;52.920;6.536;2024-03-08T05:07:38;31.92;;;21.00;;
61015;SDS011;46902;52.920;6.536;2024-03-08T05:10:05;35.67;;;20.80;;
61015;SDS011;46902;52.920;6.536;2024-03-08T05:12:32;31.60;;;20.20;;
61015;SDS011;46902;52.920;6.536;2024-03-08T05:14:58;34.25;;;21.40;;
61015;SDS011;46902;52.920;6.536;2024-03-08T05:17:23;30.98;;;20.88;;
61015;SDS011;46902;52.920;6.536;2024-03-08T05:19:49;33.20;;;21.17;;
61015;SDS011;46902;52.920;6.536;2024-03-08T05:22:16;32.85;;;20.50;;
61015;SDS011;46902;52.920;6.536;2024-03-08T05:24:42;33.83;;;21.02;;
61015;SDS011;46902;52.920;6.536;2024-03-08T05:27:08;32.05;;;20.17;;
61015;SDS011;46902;52.920;6.536;2024-03-08T05:29:34;31.73;;;20.73;;
61015;SDS011;46902;52.920;6.536;2024-03-08T05:31:59;33.58;;;20.42;;
61015;SDS011;46902;52.920;6.536;2024-03-08T05:34:26;30.00;;;20.38;;
61015;SDS011;46902;52.920;6.536;2024-03-08T05:36:53;34.70;;;21.30;;
61015;SDS011;46902;52.920;6.536;2024-03-08T05:39:19;34.08;;;20.85;;
61015;SDS011;46902;52.920;6.536;2024-03-08T05:41:45;37.08;;;21.13;;
61015;SDS011;46902;52.920;6.536;2024-03-08T05:44:11;30.58;;;20.45;;
61015;SDS011;46902;52.920;6.536;2024-03-08T05:46:38;31.80;;;21.20;;
61015;SDS011;46902;52.920;6.536;2024-03-08T05:49:04;34.25;;;21.38;;
61015;SDS011;46902;52.920;6.536;2024-03-08T05:51:34;32.90;;;21.20;;
61015;SDS011;46902;52.920;6.536;2024-03-08T05:54:04;33.10;;;20.40;;
61015;SDS011;46902;52.920;6.536;2024-03-08T05:56:34;32.65;;;21.45;;
61015;SDS011;46902;52.920;6.536;2024-03-08T05:59:00;32.95;;;21.42;;
61015;SDS011;46902;52.920;6.536;2024-03-08T06:01:27;30.73;;;21.05;;
61015;SDS011;46902;52.920;6.536;2024-03-08T06:03:53;34.67;;;21.20;;
61015;SDS011;46902;52.920;6.536;2024-03-08T06:06:21;33.50;;;20.85;;
61015;SDS011;46902;52.920;6.536;2024-03-08T06:08:48;31.58;;;21.67;;
61015;SDS011;46902;52.920;6.536;2024-03-08T06:11:17;32.35;;;21.58;;
61015;SDS011;46902;52.920;6.536;2024-03-08T06:13:44;32.58;;;20.38;;
61015;SDS011;46902;52.920;6.536;2024-03-08T06:16:10;32.72;;;21.08;;
61015;SDS011;46902;52.920;6.536;2024-03-08T06:18:36;36.30;;;22.55;;
61015;SDS011;46902;52.920;6.536;2024-03-08T06:21:03;33.15;;;20.90;;
61015;SDS011;46902;52.920;6.536;2024-03-08T06:23:32;32.75;;;21.45;;
61015;SDS011;46902;52.920;6.536;2024-03-08T06:25:58;32.80;;;21.48;;
61015;SDS011;46902;52.920;6.536;2024-03-08T06:28:24;33.65;;;20.70;;
61015;SDS011;46902;52.920;6.536;2024-03-08T06:30:50;32.80;;;21.75;;
61015;SDS011;46902;52.920;6.536;2024-03-08T06:33:16;31.45;;;20.73;;
61015;SDS011;46902;52.920;6.536;2024-03-08T06:35:43;32.42;;;21.23;;
61015;SDS011;46902;52.920;6.536;2024-03-08T06:38:09;31.35;;;20.35;;
61015;SDS011;46902;52.920;6.536;2024-03-08T06:40:34;31.83;;;20.10;;
61015;SDS011;46902;52.920;6.536;2024-03-08T06:43:00;38.22;;;21.70;;
61015;SDS011;46902;52.920;6.536;2024-03-08T06:45:26;31.65;;;20.35;;
61015;SDS011;46902;52.920;6.536;2024-03-08T06:47:51;33.03;;;20.60;;
61015;SDS011;46902;52.920;6.536;2024-03-08T06:50:17;33.63;;;20.90;;
61015;SDS011;46902;52.920;6.536;2024-03-08T06:52:43;29.08;;;20.52;;
61015;SDS011;46902;52.920;6.536;2024-03-08T06:55:09;29.50;;;19.77;;
61015;SDS011;46902;52.920;6.536;2024-03-08T06:57:38;32.78;;;21.48;;
61015;SDS011;46902;52.920;6.536;2024-03-08T07:00:07;32.33;;;20.42;;
61015;SDS011;46902;52.920;6.536;2024-03-08T07:02:40;33.40;;;20.77;;
61015;SDS011;46902;52.920;6.536;2024-03-08T07:05:07;33.28;;;20.20;;
61015;SDS011;46902;52.920;6.536;2024-03-08T07:07:35;30.23;;;20.58;;
61015;SDS011;46902;52.920;6.536;2024-03-08T07:10:02;30.98;;;21.02;;
61015;SDS011;46902;52.920;6.536;2024-03-08T07:12:28;32.08;;;20.48;;
61015;SDS011;46902;52.920;6.536;2024-03-08T07:14:53;29.60;;;19.80;;
61015;SDS011;46902;52.920;6.536;2024-03-08T07:17:19;33.15;;;20.98;;
61015;SDS011;46902;52.920;6.536;2024-03-08T07:19:45;31.30;;;20.17;;
61015;SDS011;46902;52.920;6.536;2024-03-08T07:22:10;31.88;;;21.25;;
61015;SDS011;46902;52.920;6.536;2024-03-08T07:24:36;33.63;;;22.20;;
61015;SDS011;46902;52.920;6.536;2024-03-08T07:27:03;30.20;;;20.15;;
61015;SDS011;46902;52.920;6.536;2024-03-08T07:29:30;31.45;;;20.80;;
61015;SDS011;46902;52.920;6.536;2024-03-08T07:32:00;31.45;;;20.70;;
61015;SDS011;46902;52.920;6.536;2024-03-08T07:34:25;32.20;;;20.58;;
61015;SDS011;46902;52.920;6.536;2024-03-08T07:36:51;30.27;;;21.00;;
61015;SDS011;46902;52.920;6.536;2024-03-08T07:39:17;31.23;;;21.45;;
61015;SDS011;46902;52.920;6.536;2024-03-08T07:41:44;31.00;;;21.13;;
61015;SDS011;46902;52.920;6.536;2024-03-08T07:44:09;30.13;;;20.98;;
61015;SDS011;46902;52.920;6.536;2024-03-08T07:46:35;29.77;;;20.13;;
61015;SDS011;46902;52.920;6.536;2024-03-08T07:49:02;31.08;;;20.77;;
61015;SDS011;46902;52.920;6.536;2024-03-08T07:51:28;33.30;;;21.20;;
61015;SDS011;46902;52.920;6.536;2024-03-08T07:53:53;32.40;;;20.98;;
61015;SDS011;46902;52.920;6.536;2024-03-08T07:56:20;32.80;;;20.52;;
61015;SDS011;46902;52.920;6.536;2024-03-08T07:58:46;30.50;;;21.20;;
61015;SDS011;46902;52.920;6.536;2024-03-08T08:01:19;31.73;;;20.75;;
61015;SDS011;46902;52.920;6.536;2024-03-08T08:03:45;28.92;;;20.38;;
61015;SDS011;46902;52.920;6.536;2024-03-08T08:06:12;30.13;;;20.63;;
61015;SDS011;46902;52.920;6.536;2024-03-08T08:08:43;34.50;;;21.30;;
61015;SDS011;46902;52.920;6.536;2024-03-08T08:11:10;31.60;;;21.35;;
61015;SDS011;46902;52.920;6.536;2024-03-08T08:13:40;34.97;;;22.17;;
61015;SDS011;46902;52.920;6.536;2024-03-08T08:16:08;33.78;;;21.50;;
61015;SDS011;46902;52.920;6.536;2024-03-08T08:18:34;31.10;;;21.73;;
61015;SDS011;46902;52.920;6.536;2024-03-08T08:21:01;31.10;;;20.45;;
61015;SDS011;46902;52.920;6.536;2024-03-08T08:23:27;32.17;;;22.55;;
61015;SDS011;46902;52.920;6.536;2024-03-08T08:25:54;32.17;;;21.52;;
61015;SDS011;46902;52.920;6.536;2024-03-08T08:28:20;31.10;;;21.25;;
61015;SDS011;46902;52.920;6.536;2024-03-08T08:30:46;31.17;;;21.65;;
61015;SDS011;46902;52.920;6.536;2024-03-08T08:33:13;28.70;;;21.58;;
61015;SDS011;46902;52.920;6.536;2024-03-08T08:35:40;33.55;;;22.55;;
61015;SDS011;46902;52.920;6.536;2024-03-08T08:38:05;30.63;;;21.00;;
61015;SDS011;46902;52.920;6.536;2024-03-08T08:40:32;29.25;;;21.25;;
61015;SDS011;46902;52.920;6.536;2024-03-08T08:42:58;30.67;;;21.35;;
61015;SDS011;46902;52.920;6.536;2024-03-08T08:45:25;27.35;;;19.70;;
61015;SDS011;46902;52.920;6.536;2024-03-08T08:47:51;30.25;;;21.38;;
61015;SDS011;46902;52.920;6.536;2024-03-08T08:50:17;29.27;;;19.73;;
61015;SDS011;46902;52.920;6.536;2024-03-08T08:52:48;29.33;;;20.50;;
61015;SDS011;46902;52.920;6.536;2024-03-08T08:55:14;29.48;;;20.00;;
61015;SDS011;46902;52.920;6.536;2024-03-08T08:57:40;27.20;;;19.52;;
61015;SDS011;46902;52.920;6.536;2024-03-08T09:00:06;26.35;;;20.00;;
61015;SDS011;46902;52.920;6.536;2024-03-08T09:02:35;26.60;;;20.77;;
61015;SDS011;46902;52.920;6.536;2024-03-08T09:05:02;28.25;;;20.55;;
61015;SDS011;46902;52.920;6.536;2024-03-08T09:07:29;27.20;;;20.42;;
61015;SDS011;46902;52.920;6.536;2024-03-08T09:09:54;25.95;;;20.35;;
61015;SDS011;46902;52.920;6.536;2024-03-08T09:12:23;25.73;;;18.98;;
61015;SDS011;46902;52.920;6.536;2024-03-08T09:14:49;26.23;;;18.75;;
61015;SDS011;46902;52.920;6.536;2024-03-08T09:17:15;26.85;;;19.75;;
61015;SDS011;46902;52.920;6.536;2024-03-08T09:19:45;23.20;;;19.33;;
61015;SDS011;46902;52.920;6.536;2024-03-08T09:22:13;30.38;;;21.05;;
61015;SDS011;46902;52.920;6.536;2024-03-08T09:24:39;26.88;;;19.73;;
61015;SDS011;46902;52.920;6.536;2024-03-08T09:27:05;21.92;;;18.75;;
61015;SDS011;46902;52.920;6.536;2024-03-08T09:29:31;26.58;;;18.58;;
61015;SDS011;46902;52.920;6.536;2024-03-08T09:31:56;28.50;;;20.15;;
61015;SDS011;46902;52.920;6.536;2024-03-08T09:34:22;26.60;;;20.05;;
61015;SDS011;46902;52.920;6.536;2024-03-08T09:36:48;27.98;;;20.42;;
61015;SDS011;46902;52.920;6.536;2024-03-08T09:39:14;25.08;;;19.25;;
61015;SDS011;46902;52.920;6.536;2024-03-08T09:41:45;24.90;;;19.67;;
61015;SDS011;46902;52.920;6.536;2024-03-08T09:44:13;24.10;;;19.80;;
61015;SDS011;46902;52.920;6.536;2024-03-08T09:46:39;24.25;;;19.15;;
61015;SDS011;46902;52.920;6.536;2024-03-08T09:49:06;28.15;;;19.92;;
61015;SDS011;46902;52.920;6.536;2024-03-08T09:51:33;25.88;;;19.40;;
61015;SDS011;46902;52.920;6.536;2024-03-08T09:54:02;24.77;;;19.40;;
61015;SDS011;46902;52.920;6.536;2024-03-08T09:56:34;25.30;;;18.95;;
61015;SDS011;46902;52.920;6.536;2024-03-08T09:59:01;24.70;;;19.27;;
61015;SDS011;46902;52.920;6.536;2024-03-08T10:01:36;23.33;;;19.27;;
61015;SDS011;46902;52.920;6.536;2024-03-08T10:04:04;27.10;;;19.83;;
61015;SDS011;46902;52.920;6.536;2024-03-08T10:06:30;25.90;;;18.75;;
61015;SDS011;46902;52.920;6.536;2024-03-08T10:08:56;27.63;;;19.92;;
61015;SDS011;46902;52.920;6.536;2024-03-08T10:11:22;27.58;;;19.50;;
61015;SDS011;46902;52.920;6.536;2024-03-08T10:13:49;24.45;;;19.45;;
61015;SDS011;46902;52.920;6.536;2024-03-08T10:16:15;24.83;;;19.65;;
61015;SDS011;46902;52.920;6.536;2024-03-08T10:18:42;25.02;;;19.50;;
61015;SDS011;46902;52.920;6.536;2024-03-08T10:21:10;23.45;;;18.48;;
61015;SDS011;46902;52.920;6.536;2024-03-08T10:23:37;24.27;;;18.80;;
61015;SDS011;46902;52.920;6.536;2024-03-08T10:26:12;25.63;;;19.35;;
61015;SDS011;46902;52.920;6.536;2024-03-08T10:28:42;24.40;;;19.75;;
61015;SDS011;46902;52.920;6.536;2024-03-08T10:31:09;25.30;;;20.08;;
61015;SDS011;46902;52.920;6.536;2024-03-08T10:33:35;26.30;;;19.25;;
61015;SDS011;46902;52.920;6.536;2024-03-08T10:36:00;25.83;;;19.23;;
61015;SDS011;46902;52.920;6.536;2024-03-08T10:38:26;25.58;;;19.85;;
61015;SDS011;46902;52.920;6.536;2024-03-08T10:40:54;23.15;;;18.33;;
61015;SDS011;46902;52.920;6.536;2024-03-08T10:43:24;26.73;;;20.25;;
61015;SDS011;46902;52.920;6.536;2024-03-08T10:45:52;23.88;;;19.40;;
61015;SDS011;46902;52.920;6.536;2024-03-08T10:48:43;25.50;;;19.60;;
61015;SDS011;46902;52.920;6.536;2024-03-08T10:51:09;23.83;;;20.08;;
61015;SDS011;46902;52.920;6.536;2024-03-08T10:53:37;25.38;;;19.70;;
61015;SDS011;46902;52.920;6.536;2024-03-08T10:56:07;23.35;;;19.05;;
61015;SDS011;46902;52.920;6.536;2024-03-08T10:58:35;24.00;;;19.92;;
61015;SDS011;46902;52.920;6.536;2024-03-08T11:01:01;23.30;;;18.98;;
61015;SDS011;46902;52.920;6.536;2024-03-08T11:06:10;24.80;;;19.75;;
61015;SDS011;46902;52.920;6.536;2024-03-08T11:08:40;25.45;;;18.58;;
61015;SDS011;46902;52.920;6.536;2024-03-08T11:11:06;22.30;;;18.25;;
61015;SDS011;46902;52.920;6.536;2024-03-08T11:13:56;23.25;;;18.92;;
61015;SDS011;46902;52.920;6.536;2024-03-08T11:18:58;26.23;;;19.20;;
61015;SDS011;46902;52.920;6.536;2024-03-08T11:21:29;24.13;;;19.77;;
61015;SDS011;46902;52.920;6.536;2024-03-08T11:24:07;25.33;;;19.05;;
61015;SDS011;46902;52.920;6.536;2024-03-08T11:26:38;24.35;;;19.50;;
61015;SDS011;46902;52.920;6.536;2024-03-08T11:34:46;22.52;;;19.00;;
61015;SDS011;46902;52.920;6.536;2024-03-08T11:37:15;26.88;;;19.40;;
61015;SDS011;46902;52.920;6.536;2024-03-08T11:39:54;27.05;;;19.23;;
61015;SDS011;46902;52.920;6.536;2024-03-08T11:42:24;24.73;;;19.30;;
61015;SDS011;46902;52.920;6.536;2024-03-08T11:44:51;21.38;;;18.17;;
61015;SDS011;46902;52.920;6.536;2024-03-08T11:47:18;21.48;;;18.90;;
61015;SDS011;46902;52.920;6.536;2024-03-08T11:49:44;25.10;;;19.20;;
61015;SDS011;46902;52.920;6.536;2024-03-08T11:52:12;22.27;;;18.92;;
61015;SDS011;46902;52.920;6.536;2024-03-08T11:54:43;23.13;;;19.00;;
61015;SDS011;46902;52.920;6.536;2024-03-08T11:57:22;22.45;;;19.02;;
61015;SDS011;46902;52.920;6.536;2024-03-08T11:59:52;25.33;;;18.70;;
61015;SDS011;46902;52.920;6.536;2024-03-08T12:02:18;20.38;;;17.20;;
61015;SDS011;46902;52.920;6.536;2024-03-08T12:04:44;22.83;;;18.75;;
61015;SDS011;46902;52.920;6.536;2024-03-08T12:07:14;23.90;;;19.25;;
61015;SDS011;46902;52.920;6.536;2024-03-08T12:09:43;23.63;;;19.23;;
61015;SDS011;46902;52.920;6.536;2024-03-08T12:12:30;22.05;;;18.38;;
61015;SDS011;46902;52.920;6.536;2024-03-08T12:14:57;21.65;;;18.27;;
61015;SDS011;46902;52.920;6.536;2024-03-08T12:17:22;22.50;;;18.83;;
61015;SDS011;46902;52.920;6.536;2024-03-08T12:19:49;24.17;;;19.75;;
61015;SDS011;46902;52.920;6.536;2024-03-08T12:22:15;21.63;;;18.35;;
61015;SDS011;46902;52.920;6.536;2024-03-08T12:24:40;23.23;;;18.25;;
61015;SDS011;46902;52.920;6.536;2024-03-08T12:27:19;23.13;;;18.50;;
61015;SDS011;46902;52.920;6.536;2024-03-08T12:29:45;22.98;;;18.65;;
61015;SDS011;46902;52.920;6.536;2024-03-08T12:32:12;23.20;;;19.30;;
61015;SDS011;46902;52.920;6.536;2024-03-08T12:34:37;23.25;;;18.38;;
61015;SDS011;46902;52.920;6.536;2024-03-08T12:37:03;26.85;;;19.00;;
61015;SDS011;46902;52.920;6.536;2024-03-08T12:39:32;26.05;;;20.77;;
61015;SDS011;46902;52.920;6.536;2024-03-08T12:41:58;22.88;;;18.35;;
61015;SDS011;46902;52.920;6.536;2024-03-08T12:44:24;22.48;;;18.73;;
61015;SDS011;46902;52.920;6.536;2024-03-08T12:46:51;20.38;;;18.17;;
61015;SDS011;46902;52.920;6.536;2024-03-08T12:49:18;22.08;;;18.92;;
61015;SDS011;46902;52.920;6.536;2024-03-08T12:51:47;24.88;;;19.23;;
61015;SDS011;46902;52.920;6.536;2024-03-08T12:54:12;21.52;;;19.23;;
61015;SDS011;46902;52.920;6.536;2024-03-08T12:56:38;20.92;;;17.98;;
61015;SDS011;46902;52.920;6.536;2024-03-08T12:59:05;20.75;;;16.92;;
61015;SDS011;46902;52.920;6.536;2024-03-08T13:01:32;22.38;;;17.80;;
61015;SDS011;46902;52.920;6.536;2024-03-08T13:03:59;20.80;;;18.13;;
61015;SDS011;46902;52.920;6.536;2024-03-08T13:06:28;20.77;;;17.83;;
61015;SDS011;46902;52.920;6.536;2024-03-08T13:08:56;25.65;;;18.02;;
61015;SDS011;46902;52.920;6.536;2024-03-08T13:11:23;23.33;;;18.40;;
61015;SDS011;46902;52.920;6.536;2024-03-08T13:13:50;22.90;;;18.42;;
61015;SDS011;46902;52.920;6.536;2024-03-08T13:16:16;21.77;;;18.65;;
61015;SDS011;46902;52.920;6.536;2024-03-08T13:18:44;21.45;;;18.23;;
61015;SDS011;46902;52.920;6.536;2024-03-08T13:21:10;18.58;;;15.88;;
61015;SDS011;46902;52.920;6.536;2024-03-08T13:23:39;20.50;;;17.10;;
61015;SDS011;46902;52.920;6.536;2024-03-08T13:26:10;18.98;;;16.13;;
61015;SDS011;46902;52.920;6.536;2024-03-08T13:28:43;20.40;;;16.73;;
61015;SDS011;46902;52.920;6.536;2024-03-08T13:31:10;19.75;;;16.63;;
61015;SDS011;46902;52.920;6.536;2024-03-08T13:33:36;17.80;;;15.63;;
61015;SDS011;46902;52.920;6.536;2024-03-08T13:36:07;17.08;;;15.27;;
61015;SDS011;46902;52.920;6.536;2024-03-08T13:38:40;19.98;;;15.68;;
61015;SDS011;46902;52.920;6.536;2024-03-08T13:41:13;20.10;;;16.58;;
61015;SDS011;46902;52.920;6.536;2024-03-08T13:43:41;18.48;;;16.17;;
61015;SDS011;46902;52.920;6.536;2024-03-08T13:46:11;18.70;;;16.55;;
61015;SDS011;46902;52.920;6.536;2024-03-08T13:48:37;19.80;;;17.45;;
61015;SDS011;46902;52.920;6.536;2024-03-08T13:51:06;20.05;;;17.27;;
61015;SDS011;46902;52.920;6.536;2024-03-08T13:53:32;18.17;;;15.50;;
61015;SDS011;46902;52.920;6.536;2024-03-08T13:56:00;19.05;;;16.10;;
61015;SDS011;46902;52.920;6.536;2024-03-08T13:58:30;18.40;;;15.57;;
61015;SDS011;46902;52.920;6.536;2024-03-08T14:00:55;19.75;;;16.30;;
61015;SDS011;46902;52.920;6.536;2024-03-08T14:03:21;18.63;;;15.27;;
61015;SDS011;46902;52.920;6.536;2024-03-08T14:05:48;17.33;;;15.52;;
61015;SDS011;46902;52.920;6.536;2024-03-08T14:08:14;17.88;;;15.95;;
61015;SDS011;46902;52.920;6.536;2024-03-08T14:10:42;16.85;;;14.85;;
61015;SDS011;46902;52.920;6.536;2024-03-08T14:13:08;18.80;;;15.55;;
61015;SDS011;46902;52.920;6.536;2024-03-08T14:15:34;17.13;;;14.95;;
61015;SDS011;46902;52.920;6.536;2024-03-08T14:18:00;18.95;;;15.57;;
61015;SDS011;46902;52.920;6.536;2024-03-08T14:20:31;18.73;;;16.17;;
61015;SDS011;46902;52.920;6.536;2024-03-08T14:22:57;18.10;;;15.13;;
61015;SDS011;46902;52.920;6.536;2024-03-08T14:25:23;18.73;;;15.32;;
61015;SDS011;46902;52.920;6.536;2024-03-08T14:27:49;16.73;;;14.80;;
61015;SDS011;46902;52.920;6.536;2024-03-08T14:30:19;16.88;;;14.18;;
61015;SDS011;46902;52.920;6.536;2024-03-08T14:33:01;16.75;;;14.77;;